Terminal Aerodrome Forecast
Issued by NWS

Home | Current Version | Previous Version | Text Only | Print | Product List | Glossary On
Versions: 1 2 3 4 5 6 7 8 9 10 11 12 13 14 15 16 17 18
909
FTUS46 KLOX 082347
TAFSBP
TAF
KSBP 082347Z 0900/0924 20008KT 4SM -RA BR OVC010
      TEMPO 0900/0904 1SM -RA BKN005
     FM090400 VRB03KT 5SM -RA SCT015 OVC025
     FM091000 VRB03KT P6SM VCSH BKN003 OVC015
     FM091600 VRB03KT P6SM VCSH OVC015
     FM092100 19007KT P6SM -SHRA OVC015=

USA.gov is the U.S. government's official web portal to all federal, state and local government web resources and services.